sensor_id;sensor_type;location;lat;lon;timestamp;P1;P2;P0
61592;PMS5003;47485;51.378;-1.342;2023-05-10T00:00:35;18;14;
61592;PMS5003;47485;51.378;-1.342;2023-05-10T00:03:02;12;12;
61592;PMS5003;47485;51.378;-1.342;2023-05-10T00:05:30;22;18;
61592;PMS5003;47485;51.378;-1.342;2023-05-10T00:07:56;17;15;
61592;PMS5003;47485;51.378;-1.342;2023-05-10T00:10:24;21;20;
61592;PMS5003;47485;51.378;-1.342;2023-05-10T00:12:51;20;18;
61592;PMS5003;47485;51.378;-1.342;2023-05-10T00:15:19;22;19;
61592;PMS5003;47485;51.378;-1.342;2023-05-10T00:17:46;20;18;
61592;PMS5003;47485;51.378;-1.342;2023-05-10T00:20:13;18;17;
61592;PMS5003;47485;51.378;-1.342;2023-05-10T00:22:40;22;20;
61592;PMS5003;47485;51.378;-1.342;2023-05-10T00:25:08;21;18;
61592;PMS5003;47485;51.378;-1.342;2023-05-10T00:27:35;20;17;
61592;PMS5003;47485;51.378;-1.342;2023-05-10T00:30:01;20;19;
61592;PMS5003;47485;51.378;-1.342;2023-05-10T00:32:28;25;19;
61592;PMS5003;47485;51.378;-1.342;2023-05-10T00:34:56;17;16;
61592;PMS5003;47485;51.378;-1.342;2023-05-10T00:37:22;17;16;
61592;PMS5003;47485;51.378;-1.342;2023-05-10T00:39:49;25;19;
61592;PMS5003;47485;51.378;-1.342;2023-05-10T00:42:17;20;18;
61592;PMS5003;47485;51.378;-1.342;2023-05-10T00:44:44;22;19;
61592;PMS5003;47485;51.378;-1.342;2023-05-10T00:47:11;21;21;
61592;PMS5003;47485;51.378;-1.342;2023-05-10T00:49:38;22;20;
61592;PMS5003;47485;51.378;-1.342;2023-05-10T00:52:05;19;18;
61592;PMS5003;47485;51.378;-1.342;2023-05-10T00:54:32;23;21;
61592;PMS5003;47485;51.378;-1.342;2023-05-10T00:56:59;21;17;
61592;PMS5003;47485;51.378;-1.342;2023-05-10T00:59:26;20;17;
61592;PMS5003;47485;51.378;-1.342;2023-05-10T01:01:53;21;19;
61592;PMS5003;47485;51.378;-1.342;2023-05-10T01:04:20;19;16;
61592;PMS5003;47485;51.378;-1.342;2023-05-10T01:06:47;23;19;
61592;PMS5003;47485;51.378;-1.342;2023-05-10T01:09:14;16;15;
61592;PMS5003;47485;51.378;-1.342;2023-05-10T01:11:41;19;17;
61592;PMS5003;47485;51.378;-1.342;2023-05-10T01:14:08;16;15;
61592;PMS5003;47485;51.378;-1.342;2023-05-10T01:16:36;20;17;
61592;PMS5003;47485;51.378;-1.342;2023-05-10T01:19:04;20;16;
61592;PMS5003;47485;51.378;-1.342;2023-05-10T01:21:46;19;18;
61592;PMS5003;47485;51.378;-1.342;2023-05-10T01:24:25;16;15;
61592;PMS5003;47485;51.378;-1.342;2023-05-10T01:27:18;14;11;
61592;PMS5003;47485;51.378;-1.342;2023-05-10T01:32:15;21;20;
61592;PMS5003;47485;51.378;-1.342;2023-05-10T01:34:48;17;16;
61592;PMS5003;47485;51.378;-1.342;2023-05-10T01:37:22;14;14;
61592;PMS5003;47485;51.378;-1.342;2023-05-10T01:39:56;19;17;
61592;PMS5003;47485;51.378;-1.342;2023-05-10T01:42:31;20;17;
61592;PMS5003;47485;51.378;-1.342;2023-05-10T01:45:08;18;15;
61592;PMS5003;47485;51.378;-1.342;2023-05-10T01:47:41;14;13;
61592;PMS5003;47485;51.378;-1.342;2023-05-10T01:50:10;14;13;
61592;PMS5003;47485;51.378;-1.342;2023-05-10T01:52:44;15;13;
61592;PMS5003;47485;51.378;-1.342;2023-05-10T01:55:18;17;15;
61592;PMS5003;47485;51.378;-1.342;2023-05-10T01:57:51;23;15;
61592;PMS5003;47485;51.378;-1.342;2023-05-10T02:00:22;16;15;
61592;PMS5003;47485;51.378;-1.342;2023-05-10T02:02:51;20;19;
61592;PMS5003;47485;51.378;-1.342;2023-05-10T02:05:19;22;16;
61592;PMS5003;47485;51.378;-1.342;2023-05-10T02:07:48;15;14;
61592;PMS5003;47485;51.378;-1.342;2023-05-10T02:10:16;19;16;
61592;PMS5003;47485;51.378;-1.342;2023-05-10T02:12:46;14;14;
61592;PMS5003;47485;51.378;-1.342;2023-05-10T02:15:16;15;15;
61592;PMS5003;47485;51.378;-1.342;2023-05-10T02:17:47;20;18;
61592;PMS5003;47485;51.378;-1.342;2023-05-10T02:20:14;12;12;
61592;PMS5003;47485;51.378;-1.342;2023-05-10T02:22:42;15;14;
61592;PMS5003;47485;51.378;-1.342;2023-05-10T02:25:11;22;16;
61592;PMS5003;47485;51.378;-1.342;2023-05-10T02:27:39;15;13;
61592;PMS5003;47485;51.378;-1.342;2023-05-10T02:30:09;19;16;
61592;PMS5003;47485;51.378;-1.342;2023-05-10T02:32:37;13;12;
61592;PMS5003;47485;51.378;-1.342;2023-05-10T02:35:05;15;12;
61592;PMS5003;47485;51.378;-1.342;2023-05-10T02:37:35;17;13;
61592;PMS5003;47485;51.378;-1.342;2023-05-10T02:40:03;20;12;
61592;PMS5003;47485;51.378;-1.342;2023-05-10T02:42:33;17;15;
61592;PMS5003;47485;51.378;-1.342;2023-05-10T02:45:04;16;14;
61592;PMS5003;47485;51.378;-1.342;2023-05-10T02:47:34;12;10;
61592;PMS5003;47485;51.378;-1.342;2023-05-10T02:50:01;18;14;
61592;PMS5003;47485;51.378;-1.342;2023-05-10T02:52:29;19;16;
61592;PMS5003;47485;51.378;-1.342;2023-05-10T02:55:02;17;15;
61592;PMS5003;47485;51.378;-1.342;2023-05-10T02:57:32;19;16;
61592;PMS5003;47485;51.378;-1.342;2023-05-10T03:00:00;24;17;
61592;PMS5003;47485;51.378;-1.342;2023-05-10T03:02:27;22;18;
61592;PMS5003;47485;51.378;-1.342;2023-05-10T03:04:53;23;16;
61592;PMS5003;47485;51.378;-1.342;2023-05-10T03:07:21;24;20;
61592;PMS5003;47485;51.378;-1.342;2023-05-10T03:09:48;26;19;
61592;PMS5003;47485;51.378;-1.342;2023-05-10T03:12:18;28;24;
61592;PMS5003;47485;51.378;-1.342;2023-05-10T03:14:53;25;22;
61592;PMS5003;47485;51.378;-1.342;2023-05-10T03:17:29;24;16;
61592;PMS5003;47485;51.378;-1.342;2023-05-10T03:20:03;21;18;
61592;PMS5003;47485;51.378;-1.342;2023-05-10T03:22:36;24;20;
61592;PMS5003;47485;51.378;-1.342;2023-05-10T03:25:07;28;20;
61592;PMS5003;47485;51.378;-1.342;2023-05-10T03:27:39;26;25;
61592;PMS5003;47485;51.378;-1.342;2023-05-10T03:30:08;25;22;
61592;PMS5003;47485;51.378;-1.342;2023-05-10T03:32:36;27;25;
61592;PMS5003;47485;51.378;-1.342;2023-05-10T03:35:06;26;21;
61592;PMS5003;47485;51.378;-1.342;2023-05-10T03:37:33;27;24;
61592;PMS5003;47485;51.378;-1.342;2023-05-10T03:40:00;22;20;
61592;PMS5003;47485;51.378;-1.342;2023-05-10T03:42:27;37;27;
61592;PMS5003;47485;51.378;-1.342;2023-05-10T03:44:54;26;22;
61592;PMS5003;47485;51.378;-1.342;2023-05-10T03:47:21;29;24;
61592;PMS5003;47485;51.378;-1.342;2023-05-10T03:49:48;24;21;
61592;PMS5003;47485;51.378;-1.342;2023-05-10T03:52:14;27;23;
61592;PMS5003;47485;51.378;-1.342;2023-05-10T03:54:41;27;24;
61592;PMS5003;47485;51.378;-1.342;2023-05-10T03:57:08;25;20;
61592;PMS5003;47485;51.378;-1.342;2023-05-10T03:59:35;30;23;
61592;PMS5003;47485;51.378;-1.342;2023-05-10T04:02:02;32;28;
61592;PMS5003;47485;51.378;-1.342;2023-05-10T04:04:28;35;28;
61592;PMS5003;47485;51.378;-1.342;2023-05-10T04:06:55;34;27;
61592;PMS5003;47485;51.378;-1.342;2023-05-10T04:09:22;33;27;
61592;PMS5003;47485;51.378;-1.342;2023-05-10T04:11:49;24;23;
61592;PMS5003;47485;51.378;-1.342;2023-05-10T04:14:15;33;26;
61592;PMS5003;47485;51.378;-1.342;2023-05-10T04:16:42;32;23;
61592;PMS5003;47485;51.378;-1.342;2023-05-10T04:19:09;36;31;
61592;PMS5003;47485;51.378;-1.342;2023-05-10T04:21:36;33;26;
61592;PMS5003;47485;51.378;-1.342;2023-05-10T04:24:02;29;25;
61592;PMS5003;47485;51.378;-1.342;2023-05-10T04:26:30;31;28;
61592;PMS5003;47485;51.378;-1.342;2023-05-10T04:28:57;26;22;
61592;PMS5003;47485;51.378;-1.342;2023-05-10T04:31:23;30;23;
61592;PMS5003;47485;51.378;-1.342;2023-05-10T04:33:50;29;25;
61592;PMS5003;47485;51.378;-1.342;2023-05-10T04:36:17;29;27;
61592;PMS5003;47485;51.378;-1.342;2023-05-10T04:38:44;31;26;
61592;PMS5003;47485;51.378;-1.342;2023-05-10T04:41:11;31;27;
61592;PMS5003;47485;51.378;-1.342;2023-05-10T04:43:38;29;25;
61592;PMS5003;47485;51.378;-1.342;2023-05-10T04:46:05;32;28;
61592;PMS5003;47485;51.378;-1.342;2023-05-10T04:48:33;27;24;
61592;PMS5003;47485;51.378;-1.342;2023-05-10T04:51:00;28;25;
61592;PMS5003;47485;51.378;-1.342;2023-05-10T04:53:26;34;28;
61592;PMS5003;47485;51.378;-1.342;2023-05-10T04:55:53;33;26;
61592;PMS5003;47485;51.378;-1.342;2023-05-10T04:58:20;31;29;
61592;PMS5003;47485;51.378;-1.342;2023-05-10T05:00:47;29;24;
61592;PMS5003;47485;51.378;-1.342;2023-05-10T05:03:15;27;26;
61592;PMS5003;47485;51.378;-1.342;2023-05-10T05:05:43;32;29;
61592;PMS5003;47485;51.378;-1.342;2023-05-10T05:08:09;38;31;
61592;PMS5003;47485;51.378;-1.342;2023-05-10T05:10:37;37;31;
61592;PMS5003;47485;51.378;-1.342;2023-05-10T05:13:03;34;25;
61592;PMS5003;47485;51.378;-1.342;2023-05-10T05:15:30;31;27;
61592;PMS5003;47485;51.378;-1.342;2023-05-10T05:17:57;35;29;
61592;PMS5003;47485;51.378;-1.342;2023-05-10T05:20:24;31;28;
61592;PMS5003;47485;51.378;-1.342;2023-05-10T05:22:51;38;34;
61592;PMS5003;47485;51.378;-1.342;2023-05-10T05:25:18;33;32;
61592;PMS5003;47485;51.378;-1.342;2023-05-10T05:27:46;31;31;
61592;PMS5003;47485;51.378;-1.342;2023-05-10T05:30:13;32;29;
61592;PMS5003;47485;51.378;-1.342;2023-05-10T05:32:39;39;33;
61592;PMS5003;47485;51.378;-1.342;2023-05-10T05:35:06;35;31;
61592;PMS5003;47485;51.378;-1.342;2023-05-10T05:37:34;37;31;
61592;PMS5003;47485;51.378;-1.342;2023-05-10T05:40:00;33;29;
61592;PMS5003;47485;51.378;-1.342;2023-05-10T05:42:28;30;26;
61592;PMS5003;47485;51.378;-1.342;2023-05-10T05:44:57;33;31;
61592;PMS5003;47485;51.378;-1.342;2023-05-10T05:47:25;33;31;
61592;PMS5003;47485;51.378;-1.342;2023-05-10T05:49:52;30;26;
61592;PMS5003;47485;51.378;-1.342;2023-05-10T05:52:20;32;26;
61592;PMS5003;47485;51.378;-1.342;2023-05-10T05:54:47;28;25;
61592;PMS5003;47485;51.378;-1.342;2023-05-10T05:57:14;37;28;
61592;PMS5003;47485;51.378;-1.342;2023-05-10T05:59:41;28;25;
61592;PMS5003;47485;51.378;-1.342;2023-05-10T06:02:08;28;23;
61592;PMS5003;47485;51.378;-1.342;2023-05-10T06:04:35;28;26;
61592;PMS5003;47485;51.378;-1.342;2023-05-10T06:07:02;34;30;
61592;PMS5003;47485;51.378;-1.342;2023-05-10T06:09:29;28;25;
61592;PMS5003;47485;51.378;-1.342;2023-05-10T06:11:56;26;21;
61592;PMS5003;47485;51.378;-1.342;2023-05-10T06:14:22;26;25;
61592;PMS5003;47485;51.378;-1.342;2023-05-10T06:16:49;26;24;
61592;PMS5003;47485;51.378;-1.342;2023-05-10T06:19:16;21;19;
61592;PMS5003;47485;51.378;-1.342;2023-05-10T06:21:44;21;16;
61592;PMS5003;47485;51.378;-1.342;2023-05-10T06:24:10;25;24;
61592;PMS5003;47485;51.378;-1.342;2023-05-10T06:26:37;22;16;
61592;PMS5003;47485;51.378;-1.342;2023-05-10T06:29:04;22;20;
61592;PMS5003;47485;51.378;-1.342;2023-05-10T06:31:31;22;17;
61592;PMS5003;47485;51.378;-1.342;2023-05-10T06:33:58;18;16;
61592;PMS5003;47485;51.378;-1.342;2023-05-10T06:36:25;26;22;
61592;PMS5003;47485;51.378;-1.342;2023-05-10T06:38:51;18;16;
61592;PMS5003;47485;51.378;-1.342;2023-05-10T06:41:19;16;16;
61592;PMS5003;47485;51.378;-1.342;2023-05-10T06:43:47;17;16;
61592;PMS5003;47485;51.378;-1.342;2023-05-10T06:46:14;24;22;
61592;PMS5003;47485;51.378;-1.342;2023-05-10T06:48:41;23;21;
61592;PMS5003;47485;51.378;-1.342;2023-05-10T06:51:09;23;23;
61592;PMS5003;47485;51.378;-1.342;2023-05-10T06:53:37;19;18;
61592;PMS5003;47485;51.378;-1.342;2023-05-10T06:56:04;23;18;
61592;PMS5003;47485;51.378;-1.342;2023-05-10T06:58:31;15;14;
61592;PMS5003;47485;51.378;-1.342;2023-05-10T07:01:01;22;18;
61592;PMS5003;47485;51.378;-1.342;2023-05-10T07:03:28;21;17;
61592;PMS5003;47485;51.378;-1.342;2023-05-10T07:05:59;22;18;
61592;PMS5003;47485;51.378;-1.342;2023-05-10T07:08:26;24;23;
61592;PMS5003;47485;51.378;-1.342;2023-05-10T07:10:53;18;18;
61592;PMS5003;47485;51.378;-1.342;2023-05-10T07:13:25;17;15;
61592;PMS5003;47485;51.378;-1.342;2023-05-10T07:15:52;22;19;
61592;PMS5003;47485;51.378;-1.342;2023-05-10T07:18:19;22;19;
61592;PMS5003;47485;51.378;-1.342;2023-05-10T07:20:46;15;15;
61592;PMS5003;47485;51.378;-1.342;2023-05-10T07:23:13;21;18;
61592;PMS5003;47485;51.378;-1.342;2023-05-10T07:25:40;23;16;
61592;PMS5003;47485;51.378;-1.342;2023-05-10T07:28:07;19;17;
61592;PMS5003;47485;51.378;-1.342;2023-05-10T07:30:33;21;19;
61592;PMS5003;47485;51.378;-1.342;2023-05-10T07:33:00;20;18;
61592;PMS5003;47485;51.378;-1.342;2023-05-10T07:35:27;24;21;
61592;PMS5003;47485;51.378;-1.342;2023-05-10T07:37:54;19;18;
61592;PMS5003;47485;51.378;-1.342;2023-05-10T07:40:21;23;20;
61592;PMS5003;47485;51.378;-1.342;2023-05-10T07:42:48;23;23;
61592;PMS5003;47485;51.378;-1.342;2023-05-10T07:45:14;20;19;
61592;PMS5003;47485;51.378;-1.342;2023-05-10T07:47:41;17;16;
61592;PMS5003;47485;51.378;-1.342;2023-05-10T07:50:08;24;19;
61592;PMS5003;47485;51.378;-1.342;2023-05-10T07:52:36;20;18;
61592;PMS5003;47485;51.378;-1.342;2023-05-10T07:55:02;26;21;
61592;PMS5003;47485;51.378;-1.342;2023-05-10T07:57:29;24;23;
61592;PMS5003;47485;51.378;-1.342;2023-05-10T07:59:57;24;16;
61592;PMS5003;47485;51.378;-1.342;2023-05-10T08:02:24;25;23;
61592;PMS5003;47485;51.378;-1.342;2023-05-10T08:04:51;25;18;
61592;PMS5003;47485;51.378;-1.342;2023-05-10T08:07:18;30;26;
61592;PMS5003;47485;51.378;-1.342;2023-05-10T08:09:46;17;16;
61592;PMS5003;47485;51.378;-1.342;2023-05-10T08:12:12;23;18;
61592;PMS5003;47485;51.378;-1.342;2023-05-10T08:14:39;30;23;
61592;PMS5003;47485;51.378;-1.342;2023-05-10T08:17:06;18;16;
61592;PMS5003;47485;51.378;-1.342;2023-05-10T08:19:32;19;18;
61592;PMS5003;47485;51.378;-1.342;2023-05-10T08:21:59;21;18;
61592;PMS5003;47485;51.378;-1.342;2023-05-10T08:24:26;28;24;
61592;PMS5003;47485;51.378;-1.342;2023-05-10T08:26:53;23;17;
61592;PMS5003;47485;51.378;-1.342;2023-05-10T08:29:20;21;18;
61592;PMS5003;47485;51.378;-1.342;2023-05-10T08:31:47;20;15;
61592;PMS5003;47485;51.378;-1.342;2023-05-10T08:34:14;23;19;
61592;PMS5003;47485;51.378;-1.342;2023-05-10T08:36:40;18;17;
61592;PMS5003;47485;51.378;-1.342;2023-05-10T08:39:07;20;18;
61592;PMS5003;47485;51.378;-1.342;2023-05-10T08:41:34;18;16;
61592;PMS5003;47485;51.378;-1.342;2023-05-10T08:44:05;17;11;
61592;PMS5003;47485;51.378;-1.342;2023-05-10T08:46:34;12;10;
61592;PMS5003;47485;51.378;-1.342;2023-05-10T08:49:03;17;14;
61592;PMS5003;47485;51.378;-1.342;2023-05-10T08:51:31;12;11;
61592;PMS5003;47485;51.378;-1.342;2023-05-10T08:54:02;15;14;
61592;PMS5003;47485;51.378;-1.342;2023-05-10T08:56:30;12;10;
61592;PMS5003;47485;51.378;-1.342;2023-05-10T08:58:57;13;11;
61592;PMS5003;47485;51.378;-1.342;2023-05-10T09:01:25;16;14;
61592;PMS5003;47485;51.378;-1.342;2023-05-10T09:03:54;12;11;
61592;PMS5003;47485;51.378;-1.342;2023-05-10T09:06:21;16;12;
61592;PMS5003;47485;51.378;-1.342;2023-05-10T09:08:49;21;16;
61592;PMS5003;47485;51.378;-1.342;2023-05-10T09:11:16;12;11;
61592;PMS5003;47485;51.378;-1.342;2023-05-10T09:13:44;12;12;
61592;PMS5003;47485;51.378;-1.342;2023-05-10T09:16:12;12;11;
61592;PMS5003;47485;51.378;-1.342;2023-05-10T09:18:39;12;12;
61592;PMS5003;47485;51.378;-1.342;2023-05-10T09:21:06;12;9;
61592;PMS5003;47485;51.378;-1.342;2023-05-10T09:23:34;6;5;
61592;PMS5003;47485;51.378;-1.342;2023-05-10T09:26:02;13;11;
61592;PMS5003;47485;51.378;-1.342;2023-05-10T09:28:31;10;8;
61592;PMS5003;47485;51.378;-1.342;2023-05-10T09:30:58;12;10;
61592;PMS5003;47485;51.378;-1.342;2023-05-10T09:33:25;12;11;
61592;PMS5003;47485;51.378;-1.342;2023-05-10T09:35:52;9;9;
61592;PMS5003;47485;51.378;-1.342;2023-05-10T09:38:19;6;6;
61592;PMS5003;47485;51.378;-1.342;2023-05-10T09:40:50;11;10;
61592;PMS5003;47485;51.378;-1.342;2023-05-10T09:43:18;11;10;
61592;PMS5003;47485;51.378;-1.342;2023-05-10T09:45:47;11;9;
61592;PMS5003;47485;51.378;-1.342;2023-05-10T09:48:14;10;8;
61592;PMS5003;47485;51.378;-1.342;2023-05-10T09:50:41;10;7;
61592;PMS5003;47485;51.378;-1.342;2023-05-10T09:53:08;11;9;
61592;PMS5003;47485;51.378;-1.342;2023-05-10T09:55:39;14;9;
61592;PMS5003;47485;51.378;-1.342;2023-05-10T09:58:07;14;14;
61592;PMS5003;47485;51.378;-1.342;2023-05-10T10:00:34;8;7;
61592;PMS5003;47485;51.378;-1.342;2023-05-10T10:03:03;9;7;
61592;PMS5003;47485;51.378;-1.342;2023-05-10T10:05:30;11;9;
61592;PMS5003;47485;51.378;-1.342;2023-05-10T10:07:57;6;6;
61592;PMS5003;47485;51.378;-1.342;2023-05-10T10:10:25;12;8;
61592;PMS5003;47485;51.378;-1.342;2023-05-10T10:12:52;6;6;
61592;PMS5003;47485;51.378;-1.342;2023-05-10T10:15:20;10;9;
61592;PMS5003;47485;51.378;-1.342;2023-05-10T10:17:48;4;3;
61592;PMS5003;47485;51.378;-1.342;2023-05-10T10:20:16;8;5;
61592;PMS5003;47485;51.378;-1.342;2023-05-10T10:22:43;6;5;
61592;PMS5003;47485;51.378;-1.342;2023-05-10T10:25:10;8;6;
61592;PMS5003;47485;51.378;-1.342;2023-05-10T10:27:41;5;5;
61592;PMS5003;47485;51.378;-1.342;2023-05-10T10:30:19;9;7;
61592;PMS5003;47485;51.378;-1.342;2023-05-10T10:32:59;8;6;
61592;PMS5003;47485;51.378;-1.342;2023-05-10T10:35:37;8;5;
61592;PMS5003;47485;51.378;-1.342;2023-05-10T10:38:07;8;5;
61592;PMS5003;47485;51.378;-1.342;2023-05-10T10:40:34;8;6;
61592;PMS5003;47485;51.378;-1.342;2023-05-10T10:43:21;7;6;
61592;PMS5003;47485;51.378;-1.342;2023-05-10T10:45:48;5;5;
61592;PMS5003;47485;51.378;-1.342;2023-05-10T10:48:36;9;5;
61592;PMS5003;47485;51.378;-1.342;2023-05-10T10:51:03;7;6;
61592;PMS5003;47485;51.378;-1.342;2023-05-10T10:53:30;5;4;
61592;PMS5003;47485;51.378;-1.342;2023-05-10T10:56:06;5;4;
61592;PMS5003;47485;51.378;-1.342;2023-05-10T10:58:33;5;3;
61592;PMS5003;47485;51.378;-1.342;2023-05-10T11:01:11;4;3;
61592;PMS5003;47485;51.378;-1.342;2023-05-10T11:03:39;5;4;
61592;PMS5003;47485;51.378;-1.342;2023-05-10T11:06:06;5;5;
61592;PMS5003;47485;51.378;-1.342;2023-05-10T11:08:33;5;2;
61592;PMS5003;47485;51.378;-1.342;2023-05-10T11:11:07;4;3;
61592;PMS5003;47485;51.378;-1.342;2023-05-10T11:13:34;5;5;
61592;PMS5003;47485;51.378;-1.342;2023-05-10T11:16:13;6;4;
61592;PMS5003;47485;51.378;-1.342;2023-05-10T11:18:47;4;4;
61592;PMS5003;47485;51.378;-1.342;2023-05-10T11:21:22;4;4;
61592;PMS5003;47485;51.378;-1.342;2023-05-10T11:23:50;2;2;
61592;PMS5003;47485;51.378;-1.342;2023-05-10T11:26:18;3;3;
61592;PMS5003;47485;51.378;-1.342;2023-05-10T11:28:46;3;3;
61592;PMS5003;47485;51.378;-1.342;2023-05-10T11:31:14;3;2;
61592;PMS5003;47485;51.378;-1.342;2023-05-10T11:33:42;3;2;
61592;PMS5003;47485;51.378;-1.342;2023-05-10T11:36:10;4;2;
61592;PMS5003;47485;51.378;-1.342;2023-05-10T11:38:37;2;2;
61592;PMS5003;47485;51.378;-1.342;2023-05-10T11:41:04;2;2;
61592;PMS5003;47485;51.378;-1.342;2023-05-10T11:43:30;3;2;
61592;PMS5003;47485;51.378;-1.342;2023-05-10T11:45:57;4;3;
61592;PMS5003;47485;51.378;-1.342;2023-05-10T11:48:24;2;2;
61592;PMS5003;47485;51.378;-1.342;2023-05-10T11:50:52;3;2;
61592;PMS5003;47485;51.378;-1.342;2023-05-10T11:53:19;6;5;
61592;PMS5003;47485;51.378;-1.342;2023-05-10T11:55:47;3;3;
61592;PMS5003;47485;51.378;-1.342;2023-05-10T11:58:14;6;5;
61592;PMS5003;47485;51.378;-1.342;2023-05-10T12:00:41;4;3;
61592;PMS5003;47485;51.378;-1.342;2023-05-10T12:03:08;4;2;
61592;PMS5003;47485;51.378;-1.342;2023-05-10T12:05:35;3;3;
61592;PMS5003;47485;51.378;-1.342;2023-05-10T12:08:20;3;3;
61592;PMS5003;47485;51.378;-1.342;2023-05-10T12:10:48;2;2;
61592;PMS5003;47485;51.378;-1.342;2023-05-10T12:13:14;3;3;
61592;PMS5003;47485;51.378;-1.342;2023-05-10T12:15:41;3;2;
61592;PMS5003;47485;51.378;-1.342;2023-05-10T12:18:09;3;3;
61592;PMS5003;47485;51.378;-1.342;2023-05-10T12:20:36;5;5;
61592;PMS5003;47485;51.378;-1.342;2023-05-10T12:23:03;2;2;
61592;PMS5003;47485;51.378;-1.342;2023-05-10T12:25:30;6;4;
61592;PMS5003;47485;51.378;-1.342;2023-05-10T12:27:59;4;2;
61592;PMS5003;47485;51.378;-1.342;2023-05-10T12:30:29;4;4;
61592;PMS5003;47485;51.378;-1.342;2023-05-10T12:32:59;2;1;
61592;PMS5003;47485;51.378;-1.342;2023-05-10T12:35:29;3;2;
61592;PMS5003;47485;51.378;-1.342;2023-05-10T12:37:56;5;2;
61592;PMS5003;47485;51.378;-1.342;2023-05-10T12:40:23;4;1;
61592;PMS5003;47485;51.378;-1.342;2023-05-10T12:42:50;5;4;
61592;PMS5003;47485;51.378;-1.342;2023-05-10T12:45:17;4;4;
61592;PMS5003;47485;51.378;-1.342;2023-05-10T12:47:44;7;5;
61592;PMS5003;47485;51.378;-1.342;2023-05-10T12:50:11;4;2;
61592;PMS5003;47485;51.378;-1.342;2023-05-10T12:52:38;5;3;
61592;PMS5003;47485;51.378;-1.342;2023-05-10T12:55:04;5;4;
61592;PMS5003;47485;51.378;-1.342;2023-05-10T12:57:31;5;5;
61592;PMS5003;47485;51.378;-1.342;2023-05-10T12:59:58;2;2;
61592;PMS5003;47485;51.378;-1.342;2023-05-10T13:02:24;5;4;
61592;PMS5003;47485;51.378;-1.342;2023-05-10T13:04:52;5;2;
61592;PMS5003;47485;51.378;-1.342;2023-05-10T13:07:19;2;1;
61592;PMS5003;47485;51.378;-1.342;2023-05-10T13:09:46;6;4;
61592;PMS5003;47485;51.378;-1.342;2023-05-10T13:12:13;3;3;
61592;PMS5003;47485;51.378;-1.342;2023-05-10T13:14:40;5;2;
61592;PMS5003;47485;51.378;-1.342;2023-05-10T13:17:06;6;3;
61592;PMS5003;47485;51.378;-1.342;2023-05-10T13:19:33;1;1;
61592;PMS5003;47485;51.378;-1.342;2023-05-10T13:22:00;3;3;
61592;PMS5003;47485;51.378;-1.342;2023-05-10T13:24:27;2;2;
61592;PMS5003;47485;51.378;-1.342;2023-05-10T13:26:55;4;3;
61592;PMS5003;47485;51.378;-1.342;2023-05-10T13:29:22;5;2;
61592;PMS5003;47485;51.378;-1.342;2023-05-10T13:31:48;2;2;
61592;PMS5003;47485;51.378;-1.342;2023-05-10T13:34:15;5;1;
61592;PMS5003;47485;51.378;-1.342;2023-05-10T13:36:42;6;3;
61592;PMS5003;47485;51.378;-1.342;2023-05-10T13:39:09;4;1;
61592;PMS5003;47485;51.378;-1.342;2023-05-10T13:41:35;4;3;
61592;PMS5003;47485;51.378;-1.342;2023-05-10T13:44:02;5;2;
61592;PMS5003;47485;51.378;-1.342;2023-05-10T13:46:29;7;3;
61592;PMS5003;47485;51.378;-1.342;2023-05-10T13:48:56;3;3;
61592;PMS5003;47485;51.378;-1.342;2023-05-10T13:51:22;5;3;
61592;PMS5003;47485;51.378;-1.342;2023-05-10T13:53:49;4;3;
61592;PMS5003;47485;51.378;-1.342;2023-05-10T13:56:16;2;2;
61592;PMS5003;47485;51.378;-1.342;2023-05-10T13:58:42;1;1;
61592;PMS5003;47485;51.378;-1.342;2023-05-10T14:01:09;5;3;
61592;PMS5003;47485;51.378;-1.342;2023-05-10T14:03:36;2;2;
61592;PMS5003;47485;51.378;-1.342;2023-05-10T14:06:02;1;1;
61592;PMS5003;47485;51.378;-1.342;2023-05-10T14:08:29;2;2;
61592;PMS5003;47485;51.378;-1.342;2023-05-10T14:10:56;1;1;
61592;PMS5003;47485;51.378;-1.342;2023-05-10T14:13:23;5;4;
61592;PMS5003;47485;51.378;-1.342;2023-05-10T14:15:50;1;1;
61592;PMS5003;47485;51.378;-1.342;2023-05-10T14:18:18;2;1;
61592;PMS5003;47485;51.378;-1.342;2023-05-10T14:20:45;4;2;
61592;PMS5003;47485;51.378;-1.342;2023-05-10T14:23:12;1;1;
61592;PMS5003;47485;51.378;-1.342;2023-05-10T14:25:39;1;0;
61592;PMS5003;47485;51.378;-1.342;2023-05-10T14:28:06;2;2;
61592;PMS5003;47485;51.378;-1.342;2023-05-10T14:30:33;3;2;
61592;PMS5003;47485;51.378;-1.342;2023-05-10T14:33:00;2;1;
61592;PMS5003;47485;51.378;-1.342;2023-05-10T14:35:28;4;3;
61592;PMS5003;47485;51.378;-1.342;2023-05-10T14:37:55;1;1;
61592;PMS5003;47485;51.378;-1.342;2023-05-10T14:40:21;1;0;
61592;PMS5003;47485;51.378;-1.342;2023-05-10T14:42:49;2;1;
61592;PMS5003;47485;51.378;-1.342;2023-05-10T14:45:16;1;1;
61592;PMS5003;47485;51.378;-1.342;2023-05-10T14:47:42;1;1;
61592;PMS5003;47485;51.378;-1.342;2023-05-10T14:50:10;0;0;
61592;PMS5003;47485;51.378;-1.342;2023-05-10T14:52:37;3;1;
61592;PMS5003;47485;51.378;-1.342;2023-05-10T14:55:04;1;1;
61592;PMS5003;47485;51.378;-1.342;2023-05-10T14:57:31;2;2;
61592;PMS5003;47485;51.378;-1.342;2023-05-10T14:59:58;1;1;
61592;PMS5003;47485;51.378;-1.342;2023-05-10T15:02:25;1;1;
61592;PMS5003;47485;51.378;-1.342;2023-05-10T15:04:52;3;1;
61592;PMS5003;47485;51.378;-1.342;2023-05-10T15:07:20;0;0;
61592;PMS5003;47485;51.378;-1.342;2023-05-10T15:09:46;1;1;
61592;PMS5003;47485;51.378;-1.342;2023-05-10T15:12:13;2;2;
61592;PMS5003;47485;51.378;-1.342;2023-05-10T15:14:40;1;1;
61592;PMS5003;47485;51.378;-1.342;2023-05-10T15:17:06;3;0;
61592;PMS5003;47485;51.378;-1.342;2023-05-10T15:19:33;2;2;
61592;PMS5003;47485;51.378;-1.342;2023-05-10T15:22:00;1;0;
61592;PMS5003;47485;51.378;-1.342;2023-05-10T15:24:27;0;0;
61592;PMS5003;47485;51.378;-1.342;2023-05-10T15:26:54;2;1;
61592;PMS5003;47485;51.378;-1.342;2023-05-10T15:29:21;1;0;
61592;PMS5003;47485;51.378;-1.342;2023-05-10T15:31:48;0;0;
61592;PMS5003;47485;51.378;-1.342;2023-05-10T15:34:15;1;1;
61592;PMS5003;47485;51.378;-1.342;2023-05-10T15:36:43;2;1;
61592;PMS5003;47485;51.378;-1.342;2023-05-10T15:39:10;0;0;
61592;PMS5003;47485;51.378;-1.342;2023-05-10T15:41:38;2;0;
61592;PMS5003;47485;51.378;-1.342;2023-05-10T15:44:04;0;0;
61592;PMS5003;47485;51.378;-1.342;2023-05-10T15:46:31;2;1;
61592;PMS5003;47485;51.378;-1.342;2023-05-10T15:48:58;0;0;
61592;PMS5003;47485;51.378;-1.342;2023-05-10T15:51:25;0;0;
61592;PMS5003;47485;51.378;-1.342;2023-05-10T15:53:51;0;0;
61592;PMS5003;47485;51.378;-1.342;2023-05-10T15:56:18;1;0;
61592;PMS5003;47485;51.378;-1.342;2023-05-10T15:58:45;0;0;
61592;PMS5003;47485;51.378;-1.342;2023-05-10T16:01:14;0;0;
61592;PMS5003;47485;51.378;-1.342;2023-05-10T16:03:41;0;0;
61592;PMS5003;47485;51.378;-1.342;2023-05-10T16:06:07;1;0;
61592;PMS5003;47485;51.378;-1.342;2023-05-10T16:08:34;0;0;
61592;PMS5003;47485;51.378;-1.342;2023-05-10T16:11:01;0;0;
61592;PMS5003;47485;51.378;-1.342;2023-05-10T16:13:28;0;0;
61592;PMS5003;47485;51.378;-1.342;2023-05-10T16:15:54;0;0;
61592;PMS5003;47485;51.378;-1.342;2023-05-10T16:18:21;0;0;
61592;PMS5003;47485;51.378;-1.342;2023-05-10T16:20:48;0;0;